createdAt,value
2018-04-29T00:00:08.808Z,27.31
2018-04-29T00:01:08.851Z,27.33
2018-04-29T00:02:08.712Z,27.23
2018-04-29T00:03:08.752Z,27.21
2018-04-29T00:04:08.638Z,27.19
2018-04-29T00:05:08.673Z,27.16
2018-04-29T00:07:08.692Z,27.16
2018-04-29T00:08:08.528Z,27.09
2018-04-29T00:09:09.561Z,27.12
2018-04-29T00:10:09.259Z,27.08
2018-04-29T00:11:08.573Z,27.13
2018-04-29T00:12:08.434Z,27.11
2018-04-29T00:13:08.577Z,26.99
2018-04-29T00:14:08.419Z,27.05
2018-04-29T00:15:08.642Z,27.06
2018-04-29T00:16:08.477Z,27.04
2018-04-29T00:17:08.410Z,26.96
2018-04-29T00:18:08.313Z,26.96
2018-04-29T00:19:08.380Z,26.97
2018-04-29T00:20:08.266Z,27.01
2018-04-29T00:21:08.250Z,26.99
2018-04-29T00:22:08.204Z,26.96
2018-04-29T00:23:08.173Z,26.96
2018-04-29T00:24:08.259Z,26.99
2018-04-29T00:25:08.131Z,26.91
2018-04-29T00:26:08.169Z,26.91
2018-04-29T00:27:08.160Z,26.91
2018-04-29T00:28:08.043Z,27.00
2018-04-29T00:29:08.120Z,27.00
2018-04-29T00:30:08.160Z,26.93
2018-04-29T00:31:07.990Z,26.94
2018-04-29T00:32:07.970Z,26.96
2018-04-29T00:33:07.955Z,26.93
2018-04-29T00:34:08.015Z,26.94
2018-04-29T00:35:07.904Z,26.90
2018-04-29T00:36:07.844Z,26.93
2018-04-29T00:37:07.881Z,26.82
2018-04-29T00:38:08.384Z,26.75
2018-04-29T00:39:07.902Z,26.76
2018-04-29T00:40:07.750Z,26.78
2018-04-29T00:41:07.742Z,26.67
2018-04-29T00:42:07.701Z,26.67
2018-04-29T00:43:07.737Z,26.68
2018-04-29T00:44:08.487Z,26.72
2018-04-29T00:45:07.640Z,26.72
2018-04-29T00:46:07.688Z,26.72
2018-04-29T00:47:07.622Z,26.64
2018-04-29T00:48:07.574Z,26.69
2018-04-29T00:49:07.648Z,26.71
2018-04-29T00:50:08.024Z,26.67
2018-04-29T00:51:07.485Z,26.64
2018-04-29T00:52:07.505Z,26.63
2018-04-29T00:53:07.606Z,26.56
2018-04-29T00:54:07.598Z,26.60
2018-04-29T00:55:07.957Z,26.50
2018-04-29T00:56:07.362Z,26.50
2018-04-29T00:57:07.789Z,26.56
2018-04-29T00:58:07.306Z,26.45
2018-04-29T00:59:07.532Z,26.53
2018-04-29T01:00:07.257Z,26.44
2018-04-29T01:01:07.311Z,26.45
2018-04-29T01:02:07.223Z,26.44
2018-04-29T01:03:07.266Z,26.38
2018-04-29T01:04:07.256Z,26.31
2018-04-29T01:05:07.114Z,26.37
2018-04-29T01:07:07.397Z,26.31
2018-04-29T01:08:07.162Z,26.35
2018-04-29T01:09:07.032Z,26.34
2018-04-29T01:10:07.008Z,26.24
2018-04-29T01:11:06.964Z,26.20
2018-04-29T01:12:07.064Z,26.31
2018-04-29T01:13:07.035Z,26.19
2018-04-29T01:14:06.909Z,26.23
2018-04-29T01:15:06.884Z,26.17
2018-04-29T01:16:07.387Z,26.26
2018-04-29T01:17:07.188Z,26.15
2018-04-29T01:18:06.851Z,26.16
2018-04-29T01:19:06.754Z,26.16
2018-04-29T01:20:06.786Z,26.17
2018-04-29T01:21:06.776Z,26.07
2018-04-29T01:22:06.849Z,26.07
2018-04-29T01:23:07.137Z,26.09
2018-04-29T01:24:06.643Z,26.11
2018-04-29T01:25:06.624Z,26.07
2018-04-29T01:26:06.602Z,26.17
2018-04-29T01:27:06.709Z,26.07
2018-04-29T01:28:06.637Z,26.09
2018-04-29T01:29:06.555Z,26.07
2018-04-29T01:30:06.677Z,26.11
2018-04-29T01:31:06.643Z,26.09
2018-04-29T01:32:06.585Z,26.04
2018-04-29T01:33:06.543Z,26.09
2018-04-29T01:34:06.398Z,26.03
2018-04-29T01:35:06.479Z,26.03
2018-04-29T01:36:06.536Z,25.93
2018-04-29T01:37:06.415Z,25.97
2018-04-29T01:38:06.298Z,26.00
2018-04-29T01:39:06.511Z,25.96
2018-04-29T01:40:06.380Z,26.03
2018-04-29T01:41:06.369Z,25.94
2018-04-29T01:42:06.290Z,26.00
2018-04-29T01:43:06.281Z,26.03
2018-04-29T01:44:06.182Z,25.96
2018-04-29T01:45:06.130Z,25.97
2018-04-29T01:46:06.077Z,25.93
2018-04-29T01:47:06.593Z,25.94
2018-04-29T01:48:06.021Z,25.93
2018-04-29T01:49:06.102Z,26.00
2018-04-29T01:50:05.985Z,26.00
2018-04-29T01:51:06.668Z,26.00
2018-04-29T01:52:05.959Z,25.91
2018-04-29T01:53:05.903Z,26.06
2018-04-29T01:54:05.973Z,26.01
2018-04-29T01:55:05.834Z,25.89
2018-04-29T01:56:06.030Z,25.88
2018-04-29T01:57:06.371Z,25.85
2018-04-29T01:58:05.770Z,25.89
2018-04-29T01:59:05.970Z,25.91
2018-04-29T02:00:05.856Z,25.88
2018-04-29T02:01:05.707Z,25.86
2018-04-29T02:02:05.791Z,25.86
2018-04-29T02:03:05.645Z,25.93
2018-04-29T02:04:06.125Z,25.88
2018-04-29T02:05:06.233Z,25.88
2018-04-29T02:06:05.637Z,25.91
2018-04-29T02:07:05.657Z,25.88
2018-04-29T02:08:05.782Z,25.88
2018-04-29T02:09:05.652Z,25.88
2018-04-29T02:10:05.628Z,25.96
2018-04-29T02:11:05.965Z,26.00
2018-04-29T02:12:05.581Z,25.89
2018-04-29T02:13:05.394Z,25.84
2018-04-29T02:14:05.354Z,25.84
2018-04-29T02:15:05.916Z,25.88
2018-04-29T02:16:05.344Z,25.82
2018-04-29T02:17:05.409Z,25.94
2018-04-29T02:18:05.286Z,25.84
2018-04-29T02:19:05.312Z,25.88
2018-04-29T02:20:05.547Z,25.84
2018-04-29T02:21:05.264Z,25.81
2018-04-29T02:22:05.619Z,25.84
2018-04-29T02:23:05.196Z,25.82
2018-04-29T02:24:05.160Z,25.79
2018-04-29T02:25:05.085Z,25.84
2018-04-29T02:26:05.127Z,25.81
2018-04-29T02:27:05.362Z,25.82
2018-04-29T02:28:05.116Z,25.85
2018-04-29T02:29:04.978Z,25.96
2018-04-29T02:30:04.964Z,25.88
2018-04-29T02:31:05.120Z,25.85
2018-04-29T02:32:04.987Z,25.82
2018-04-29T02:33:04.871Z,25.82
2018-04-29T02:34:04.931Z,25.81
2018-04-29T02:35:04.960Z,25.74
2018-04-29T02:36:04.915Z,25.71
2018-04-29T02:37:04.856Z,25.70
2018-04-29T02:38:04.750Z,25.62
2018-04-29T02:39:04.739Z,25.52
2018-04-29T02:40:04.842Z,25.62
2018-04-29T02:41:04.855Z,25.54
2018-04-29T02:42:05.278Z,25.51
2018-04-29T02:43:04.714Z,25.59
2018-04-29T02:44:04.630Z,25.48
2018-04-29T02:45:04.633Z,25.47
2018-04-29T02:46:04.612Z,25.48
2018-04-29T02:47:04.502Z,25.39
2018-04-29T02:48:04.555Z,25.39
2018-04-29T02:49:04.830Z,25.57
2018-04-29T02:50:05.019Z,25.48
2018-04-29T02:51:04.918Z,25.54
2018-04-29T02:52:04.375Z,25.47
2018-04-29T02:53:04.366Z,25.42
2018-04-29T02:54:04.454Z,25.47
2018-04-29T02:55:04.627Z,25.38
2018-04-29T02:56:04.282Z,25.41
2018-04-29T02:57:04.261Z,25.42
2018-04-29T02:58:04.279Z,25.47
2018-04-29T02:59:04.259Z,25.51
2018-04-29T03:00:04.267Z,25.44
2018-04-29T03:01:04.360Z,25.45
2018-04-29T03:02:04.252Z,25.42
2018-04-29T03:03:04.340Z,25.42
2018-04-29T03:04:04.156Z,25.47
2018-04-29T03:05:04.065Z,25.44
2018-04-29T03:06:04.426Z,25.41
2018-04-29T03:07:04.007Z,25.44
2018-04-29T03:08:04.080Z,25.41
2018-04-29T03:09:04.052Z,25.34
2018-04-29T03:10:03.908Z,25.42
2018-04-29T03:11:03.995Z,25.30
2018-04-29T03:12:03.865Z,25.30
2018-04-29T03:13:03.862Z,25.30
2018-04-29T03:14:03.847Z,25.45
2018-04-29T03:15:03.778Z,25.32
2018-04-29T03:16:03.903Z,25.41
2018-04-29T03:17:03.954Z,25.34
2018-04-29T03:18:03.816Z,25.34
2018-04-29T03:19:03.667Z,25.41
2018-04-29T03:20:03.830Z,25.41
2018-04-29T03:21:03.843Z,25.42
2018-04-29T03:22:03.710Z,25.29
2018-04-29T03:23:03.673Z,25.47
2018-04-29T03:24:03.543Z,25.62
2018-04-29T03:25:03.517Z,25.52
2018-04-29T03:26:03.500Z,25.51
2018-04-29T03:27:03.959Z,25.51
2018-04-29T03:28:03.721Z,25.54
2018-04-29T03:29:03.480Z,25.44
2018-04-29T03:30:03.385Z,25.42
2018-04-29T03:31:03.890Z,25.47
2018-04-29T03:32:03.513Z,25.45
2018-04-29T03:33:03.286Z,25.56
2018-04-29T03:34:03.389Z,25.45
2018-04-29T03:35:03.292Z,25.44
2018-04-29T03:36:03.831Z,25.44
2018-04-29T03:37:03.192Z,25.44
2018-04-29T03:38:03.326Z,25.47
2018-04-29T03:39:03.496Z,25.41
2018-04-29T03:40:03.108Z,25.39
2018-04-29T03:41:03.104Z,25.42
2018-04-29T03:42:03.068Z,25.49
2018-04-29T03:43:03.044Z,25.41
2018-04-29T03:44:03.218Z,25.34
2018-04-29T03:45:02.986Z,25.39
2018-04-29T03:46:02.967Z,25.41
2018-04-29T03:47:02.945Z,25.32
2018-04-29T03:48:02.889Z,25.34
2018-04-29T03:49:02.890Z,25.44
2018-04-29T03:50:02.943Z,25.37
2018-04-29T03:51:02.841Z,25.41
2018-04-29T03:52:02.877Z,25.49
2018-04-29T03:53:02.780Z,25.45
2018-04-29T03:54:02.742Z,25.42
2018-04-29T03:55:02.759Z,25.59
2018-04-29T03:56:02.869Z,25.41
2018-04-29T03:57:02.663Z,25.52
2018-04-29T03:58:02.662Z,25.47
2018-04-29T03:59:02.639Z,25.44
2018-04-29T04:00:03.109Z,25.42
2018-04-29T04:01:02.653Z,25.39
2018-04-29T04:02:02.532Z,25.42
2018-04-29T04:03:02.522Z,25.44
2018-04-29T04:04:02.529Z,25.34
2018-04-29T04:05:02.432Z,25.41
2018-04-29T04:06:02.428Z,25.33
2018-04-29T04:07:02.510Z,25.38
2018-04-29T04:08:02.380Z,25.41
2018-04-29T04:09:02.377Z,25.30
2018-04-29T04:10:02.334Z,25.42
2018-04-29T04:11:02.303Z,25.44
2018-04-29T04:12:02.271Z,25.44
2018-04-29T04:13:02.400Z,25.34
2018-04-29T04:14:02.246Z,25.41
2018-04-29T04:15:02.205Z,25.44
2018-04-29T04:16:02.211Z,25.39
2018-04-29T04:17:02.171Z,25.38
2018-04-29T04:18:02.246Z,25.42
2018-04-29T04:19:02.092Z,25.41
2018-04-29T04:20:02.088Z,25.42
2018-04-29T04:21:02.051Z,25.34
2018-04-29T04:22:02.006Z,25.32
2018-04-29T04:23:02.121Z,25.29
2018-04-29T04:24:01.970Z,25.32
2018-04-29T04:25:01.935Z,25.33
2018-04-29T04:26:01.924Z,25.33
2018-04-29T04:27:01.884Z,25.27
2018-04-29T04:28:01.873Z,25.29
2018-04-29T04:29:01.941Z,25.30
2018-04-29T04:30:01.811Z,25.34
2018-04-29T04:31:01.768Z,25.29
2018-04-29T04:32:01.776Z,25.29
2018-04-29T04:33:01.733Z,25.37
2018-04-29T04:34:01.851Z,25.32
2018-04-29T04:35:01.713Z,25.32
2018-04-29T04:36:01.645Z,25.34
2018-04-29T04:37:01.611Z,25.27
2018-04-29T04:38:01.581Z,25.26
2018-04-29T04:39:01.938Z,25.20
2018-04-29T04:40:01.798Z,25.27
2018-04-29T04:41:01.524Z,25.24
2018-04-29T04:42:01.523Z,25.34
2018-04-29T04:43:01.463Z,25.24
2018-04-29T04:44:01.440Z,25.27
2018-04-29T04:45:01.509Z,25.29
2018-04-29T04:46:01.399Z,25.27
2018-04-29T04:47:01.360Z,25.30
2018-04-29T04:48:01.404Z,25.27
2018-04-29T04:49:01.310Z,25.26
2018-04-29T04:50:01.342Z,25.37
2018-04-29T04:51:01.373Z,25.26
2018-04-29T04:52:01.415Z,25.32
2018-04-29T04:53:01.205Z,25.30
2018-04-29T04:54:01.181Z,25.33
2018-04-29T04:55:01.174Z,25.29
2018-04-29T04:56:01.279Z,25.33
2018-04-29T04:57:01.168Z,25.37
2018-04-29T04:58:01.185Z,25.39
2018-04-29T04:59:01.046Z,25.42
2018-04-29T05:00:01.110Z,25.44
2018-04-29T05:01:01.017Z,25.48
2018-04-29T05:02:01.079Z,25.56
2018-04-29T05:03:00.947Z,25.51
2018-04-29T05:04:00.915Z,25.45
2018-04-29T05:05:00.906Z,25.54
2018-04-29T05:06:00.855Z,25.45
2018-04-29T05:07:01.014Z,25.59
2018-04-29T05:08:00.805Z,25.45
2018-04-29T05:09:00.812Z,25.45
2018-04-29T05:10:00.810Z,25.60
2018-04-29T05:11:01.045Z,25.60
2018-04-29T05:12:00.902Z,25.54
2018-04-29T05:13:00.741Z,25.64
2018-04-29T05:14:00.643Z,25.62
2018-04-29T05:15:00.625Z,25.66
2018-04-29T05:16:00.663Z,25.62
2018-04-29T05:17:00.767Z,25.56
2018-04-29T05:18:00.551Z,25.51
2018-04-29T05:19:00.546Z,25.59
2018-04-29T05:20:00.678Z,25.51
2018-04-29T05:21:00.482Z,25.56
2018-04-29T05:22:00.456Z,25.52
2018-04-29T05:23:00.506Z,25.45
2018-04-29T05:24:00.478Z,25.39
2018-04-29T05:25:00.351Z,25.44
2018-04-29T05:26:00.356Z,25.37
2018-04-29T05:27:00.333Z,25.39
2018-04-29T05:28:00.464Z,25.30
2018-04-29T05:29:00.393Z,25.30
2018-04-29T05:30:00.694Z,25.29
2018-04-29T05:31:00.239Z,25.22
2018-04-29T05:32:00.199Z,25.24
2018-04-29T05:33:00.194Z,25.26
2018-04-29T05:34:00.330Z,25.22
2018-04-29T05:35:00.088Z,25.24
2018-04-29T05:36:00.070Z,25.27
2018-04-29T05:37:00.181Z,25.19
2018-04-29T05:38:00.007Z,25.26
2018-04-29T05:39:00.013Z,25.19
2018-04-29T05:40:00.070Z,25.27
2018-04-29T05:40:59.986Z,25.20
2018-04-29T05:41:59.944Z,25.15
2018-04-29T05:42:59.931Z,25.11
2018-04-29T05:43:59.902Z,25.07
2018-04-29T05:44:59.987Z,25.08
2018-04-29T05:45:59.815Z,25.09
2018-04-29T05:46:59.797Z,25.12
2018-04-29T05:47:59.792Z,25.07
2018-04-29T05:48:59.716Z,25.08
2018-04-29T05:49:59.788Z,25.08
2018-04-29T05:50:59.709Z,25.08
2018-04-29T05:51:59.738Z,25.04
2018-04-29T05:52:59.634Z,25.08
2018-04-29T05:53:59.605Z,25.04
2018-04-29T05:54:59.680Z,25.00
2018-04-29T05:55:59.528Z,25.02
2018-04-29T05:56:59.515Z,24.97
2018-04-29T05:57:59.497Z,24.92
2018-04-29T05:58:59.518Z,24.90
2018-04-29T05:59:59.445Z,24.90
2018-04-29T06:00:59.500Z,25.01
2018-04-29T06:01:59.379Z,25.00
2018-04-29T06:02:59.379Z,24.96
2018-04-29T06:03:59.374Z,24.92
2018-04-29T06:04:59.314Z,24.90
2018-04-29T06:05:59.425Z,24.92
2018-04-29T06:06:59.329Z,24.92
2018-04-29T06:07:59.222Z,24.92
2018-04-29T06:08:59.236Z,24.97
2018-04-29T06:09:59.249Z,25.02
2018-04-29T06:10:59.138Z,25.00
2018-04-29T06:11:59.246Z,25.02
2018-04-29T06:12:59.081Z,24.96
2018-04-29T06:13:59.082Z,25.00
2018-04-29T06:14:59.065Z,24.93
2018-04-29T06:15:59.049Z,24.93
2018-04-29T06:16:59.139Z,24.92
2018-04-29T06:17:58.984Z,24.89
2018-04-29T06:18:58.922Z,24.92
2018-04-29T06:19:58.937Z,24.90
2018-04-29T06:20:58.913Z,24.93
2018-04-29T06:21:58.949Z,24.82
2018-04-29T06:22:58.826Z,24.82
2018-04-29T06:23:58.824Z,24.85
2018-04-29T06:24:58.791Z,24.85
2018-04-29T06:25:58.880Z,24.85
2018-04-29T06:26:58.845Z,24.78
2018-04-29T06:27:58.708Z,24.77
2018-04-29T06:28:58.692Z,24.70
2018-04-29T06:29:58.703Z,24.78
2018-04-29T06:30:58.619Z,24.70
2018-04-29T06:31:58.701Z,24.67
2018-04-29T06:32:58.574Z,24.64
2018-04-29T06:33:58.549Z,24.77
2018-04-29T06:34:58.543Z,24.69
2018-04-29T06:35:58.469Z,24.80
2018-04-29T06:36:58.458Z,24.78
2018-04-29T06:37:58.546Z,24.74
2018-04-29T06:38:58.411Z,24.75
2018-04-29T06:39:58.389Z,24.77
2018-04-29T06:40:58.327Z,24.82
2018-04-29T06:41:58.348Z,24.78
2018-04-29T06:42:58.453Z,24.80
2018-04-29T06:43:58.259Z,24.78
2018-04-29T06:44:58.240Z,24.83
2018-04-29T06:45:58.199Z,24.82
2018-04-29T06:46:58.212Z,24.77
2018-04-29T06:47:58.289Z,24.77
2018-04-29T06:49:58.198Z,24.82
2018-04-29T06:50:58.145Z,24.77
2018-04-29T06:51:58.075Z,24.85
2018-04-29T06:52:58.088Z,24.80
2018-04-29T06:53:58.103Z,24.90
2018-04-29T06:54:58.056Z,24.94
2018-04-29T06:55:57.942Z,24.96
2018-04-29T06:56:57.925Z,24.90
2018-04-29T06:57:57.891Z,24.90
2018-04-29T06:58:58.008Z,24.90
2018-04-29T06:59:57.859Z,25.00
2018-04-29T07:00:57.846Z,25.02
2018-04-29T07:01:57.848Z,25.08
2018-04-29T07:02:57.766Z,25.12
2018-04-29T07:03:57.834Z,25.09
2018-04-29T07:04:57.727Z,25.17
2018-04-29T07:05:57.687Z,25.09
2018-04-29T07:06:57.642Z,25.02
2018-04-29T07:07:57.617Z,25.01
2018-04-29T07:08:57.709Z,25.14
2018-04-29T07:09:57.573Z,25.05
2018-04-29T07:10:57.563Z,25.05
2018-04-29T07:11:57.531Z,25.05
2018-04-29T07:12:57.495Z,25.00
2018-04-29T07:13:57.483Z,25.02
2018-04-29T07:14:57.548Z,25.08
2018-04-29T07:15:57.419Z,25.09
2018-04-29T07:16:57.368Z,25.00
2018-04-29T07:17:57.365Z,25.01
2018-04-29T07:18:57.342Z,24.97
2018-04-29T07:19:57.319Z,24.93
2018-04-29T07:20:57.391Z,24.93
2018-04-29T07:21:57.271Z,24.93
2018-04-29T07:22:57.233Z,24.93
2018-04-29T07:23:57.245Z,24.93
2018-04-29T07:24:57.178Z,24.87
2018-04-29T07:25:57.327Z,24.78
2018-04-29T07:26:57.160Z,24.78
2018-04-29T07:27:57.092Z,24.80
2018-04-29T07:28:57.049Z,24.77
2018-04-29T07:29:57.058Z,24.77
2018-04-29T07:30:57.110Z,24.77
2018-04-29T07:31:57.022Z,24.70
2018-04-29T07:32:56.942Z,24.75
2018-04-29T07:33:56.964Z,24.70
2018-04-29T07:34:56.894Z,24.63
2018-04-29T07:35:57.010Z,24.61
2018-04-29T07:36:56.842Z,24.63
2018-04-29T07:37:56.868Z,24.67
2018-04-29T07:38:56.803Z,24.69
2018-04-29T07:39:56.826Z,24.67
2018-04-29T07:40:56.835Z,24.61
2018-04-29T07:41:56.727Z,24.64
2018-04-29T07:42:56.685Z,24.63
2018-04-29T07:43:56.762Z,24.64
2018-04-29T07:44:56.652Z,24.74
2018-04-29T07:45:56.721Z,24.71
2018-04-29T07:46:56.581Z,24.70
2018-04-29T07:47:56.568Z,24.66
2018-04-29T07:48:56.539Z,24.67
2018-04-29T07:49:56.850Z,24.63
2018-04-29T07:50:56.622Z,24.70
2018-04-29T07:51:56.451Z,24.74
2018-04-29T07:52:56.422Z,24.64
2018-04-29T07:53:56.402Z,24.67
2018-04-29T07:54:56.374Z,24.63
2018-04-29T07:55:56.325Z,24.64
2018-04-29T07:56:56.413Z,24.64
2018-04-29T07:57:56.287Z,24.61
2018-04-29T07:58:56.268Z,24.63
2018-04-29T07:59:56.242Z,24.59
2018-04-29T08:00:56.207Z,24.59
2018-04-29T08:01:56.558Z,24.58
2018-04-29T08:02:56.155Z,24.63
2018-04-29T08:03:56.139Z,24.66
2018-04-29T08:04:56.125Z,24.66
2018-04-29T08:05:56.089Z,24.59
2018-04-29T08:06:56.154Z,24.69
2018-04-29T08:07:56.013Z,24.61
2018-04-29T08:08:56.014Z,24.63
2018-04-29T08:09:55.978Z,24.61
2018-04-29T08:10:56.017Z,24.63
2018-04-29T08:11:56.007Z,24.66
2018-04-29T08:12:55.891Z,24.64
2018-04-29T08:13:55.881Z,24.56
2018-04-29T08:14:55.821Z,24.66
2018-04-29T08:15:55.808Z,24.58
2018-04-29T08:16:55.899Z,24.56
2018-04-29T08:17:55.792Z,24.59
2018-04-29T08:18:55.738Z,24.66
2018-04-29T08:19:55.694Z,24.55
2018-04-29T08:20:55.678Z,24.54
2018-04-29T08:21:55.740Z,24.52
2018-04-29T08:22:55.620Z,24.52
2018-04-29T08:23:55.607Z,24.61
2018-04-29T08:24:55.569Z,24.61
2018-04-29T08:25:55.551Z,24.58
2018-04-29T08:26:55.537Z,24.54
2018-04-29T08:27:55.614Z,24.63
2018-04-29T08:28:55.445Z,24.52
2018-04-29T08:29:55.442Z,24.55
2018-04-29T08:30:55.421Z,24.66
2018-04-29T08:31:55.382Z,24.55
2018-04-29T08:32:55.353Z,24.63
2018-04-29T08:33:55.445Z,24.61
2018-04-29T08:34:55.311Z,24.56
2018-04-29T08:35:55.271Z,24.58
2018-04-29T08:36:55.269Z,24.63
2018-04-29T08:37:55.218Z,24.56
2018-04-29T08:38:55.284Z,24.69
2018-04-29T08:39:55.180Z,24.66
2018-04-29T08:40:55.156Z,24.69
2018-04-29T08:41:55.199Z,24.64
2018-04-29T08:42:55.113Z,24.58
2018-04-29T08:43:55.154Z,24.58
2018-04-29T08:44:55.074Z,24.64
2018-04-29T08:45:55.034Z,24.58
2018-04-29T08:46:54.971Z,24.55
2018-04-29T08:47:54.944Z,24.52
2018-04-29T08:48:55.015Z,24.49
2018-04-29T08:49:54.912Z,24.55
2018-04-29T08:50:54.915Z,24.51
2018-04-29T08:51:54.877Z,24.48
2018-04-29T08:52:54.880Z,24.49
2018-04-29T08:53:54.960Z,24.51
2018-04-29T08:54:54.810Z,24.46
2018-04-29T08:55:54.746Z,24.49
2018-04-29T08:56:54.718Z,24.51
2018-04-29T08:57:54.677Z,24.52
2018-04-29T08:58:54.758Z,24.51
2018-04-29T08:59:54.669Z,24.49
2018-04-29T09:00:54.602Z,24.49
2018-04-29T09:01:54.570Z,24.52
2018-04-29T09:02:54.569Z,24.49
2018-04-29T09:03:54.560Z,24.63
2018-04-29T09:04:54.593Z,24.58
2018-04-29T09:05:54.464Z,24.59
2018-04-29T09:06:54.424Z,24.58
2018-04-29T09:07:54.421Z,24.55
2018-04-29T09:08:54.397Z,24.58
2018-04-29T09:09:54.381Z,24.59
2018-04-29T09:10:54.432Z,24.56
2018-04-29T09:11:54.311Z,24.54
2018-04-29T09:12:54.271Z,24.59
2018-04-29T09:13:54.236Z,24.51
2018-04-29T09:14:54.215Z,24.51
2018-04-29T09:15:54.302Z,24.58
2018-04-29T09:16:54.226Z,24.61
2018-04-29T09:17:54.143Z,24.61
2018-04-29T09:18:54.107Z,24.63
2018-04-29T09:19:54.076Z,24.58
2018-04-29T09:20:54.264Z,24.59
2018-04-29T09:21:54.054Z,24.56
2018-04-29T09:22:53.998Z,24.48
2018-04-29T09:23:53.984Z,24.49
2018-04-29T09:24:53.948Z,24.48
2018-04-29T09:25:54.106Z,24.51
2018-04-29T09:26:53.917Z,24.48
2018-04-29T09:27:53.878Z,24.42
2018-04-29T09:28:53.838Z,24.40
2018-04-29T09:29:53.811Z,24.42
2018-04-29T09:30:53.878Z,24.37
2018-04-29T09:31:53.776Z,24.34
2018-04-29T09:32:53.748Z,24.37
2018-04-29T09:33:53.717Z,24.40
2018-04-29T09:34:53.678Z,24.39
2018-04-29T09:35:53.651Z,24.44
2018-04-29T09:36:53.779Z,24.40
2018-04-29T09:37:53.600Z,24.36
2018-04-29T09:38:53.578Z,24.40
2018-04-29T09:39:53.559Z,24.39
2018-04-29T09:40:53.529Z,24.45
2018-04-29T09:41:53.617Z,24.44
2018-04-29T09:42:53.488Z,24.37
2018-04-29T09:43:53.448Z,24.44
2018-04-29T09:44:53.403Z,24.44
2018-04-29T09:45:53.388Z,24.42
2018-04-29T09:46:53.363Z,24.37
2018-04-29T09:47:53.455Z,24.40
2018-04-29T09:48:53.317Z,24.36
2018-04-29T09:49:53.281Z,24.39
2018-04-29T09:50:53.259Z,24.36
2018-04-29T09:51:53.219Z,24.32
2018-04-29T09:52:53.299Z,24.34
2018-04-29T09:53:53.174Z,24.24
2018-04-29T09:54:53.133Z,24.22
2018-04-29T09:55:53.107Z,24.19
2018-04-29T09:56:53.092Z,24.24
2018-04-29T09:57:53.155Z,24.22
2018-04-29T09:58:53.033Z,24.29
2018-04-29T09:59:52.995Z,24.29
2018-04-29T10:00:52.993Z,24.22
2018-04-29T10:01:52.968Z,24.24
2018-04-29T10:02:53.015Z,24.22
2018-04-29T10:03:52.886Z,24.34
2018-04-29T10:04:52.873Z,24.44
2018-04-29T10:05:52.847Z,24.34
2018-04-29T10:06:52.807Z,24.34
2018-04-29T10:07:52.785Z,24.30
2018-04-29T10:08:52.858Z,24.34
2018-04-29T10:09:52.753Z,24.36
2018-04-29T10:10:52.729Z,24.33
2018-04-29T10:11:52.678Z,24.24
2018-04-29T10:12:52.675Z,24.33
2018-04-29T10:13:52.635Z,24.30
2018-04-29T10:14:52.695Z,24.32
2018-04-29T10:15:52.571Z,24.22
2018-04-29T10:16:52.564Z,24.19
2018-04-29T10:17:52.510Z,24.18
2018-04-29T10:18:52.612Z,24.22
2018-04-29T10:19:52.475Z,24.27
2018-04-29T10:20:52.529Z,24.39
2018-04-29T10:21:52.427Z,24.33
2018-04-29T10:22:52.395Z,24.40
2018-04-29T10:23:52.350Z,24.33
2018-04-29T10:24:52.353Z,24.32
2018-04-29T10:25:52.290Z,24.32
2018-04-29T10:26:52.377Z,24.39
2018-04-29T10:27:52.275Z,24.32
2018-04-29T10:28:52.212Z,24.29
2018-04-29T10:29:52.201Z,24.39
2018-04-29T10:30:52.170Z,24.33
2018-04-29T10:31:52.234Z,24.36
2018-04-29T10:32:52.164Z,24.36
2018-04-29T10:33:52.091Z,24.42
2018-04-29T10:34:52.077Z,24.37
2018-04-29T10:35:52.045Z,24.34
2018-04-29T10:36:52.158Z,24.44
2018-04-29T10:37:51.999Z,24.48
2018-04-29T10:38:51.969Z,24.42
2018-04-29T10:39:51.974Z,24.45
2018-04-29T10:40:51.885Z,24.44
2018-04-29T10:41:51.864Z,24.44
2018-04-29T10:42:51.962Z,24.44
2018-04-29T10:43:51.815Z,24.44
2018-04-29T10:44:51.787Z,24.44
2018-04-29T10:45:51.760Z,24.48
2018-04-29T10:46:51.725Z,24.51
2018-04-29T10:47:51.740Z,24.48
2018-04-29T10:48:51.783Z,24.52
2018-04-29T10:49:51.679Z,24.52
2018-04-29T10:50:51.619Z,24.44
2018-04-29T10:51:51.612Z,24.46
2018-04-29T10:52:51.608Z,24.44
2018-04-29T10:53:51.638Z,24.52
2018-04-29T10:54:51.521Z,24.49
2018-04-29T10:55:51.572Z,24.42
2018-04-29T10:56:51.470Z,24.51
2018-04-29T10:57:51.438Z,24.55
2018-04-29T10:58:51.473Z,24.52
2018-04-29T10:59:51.535Z,24.46
2018-04-29T11:00:51.349Z,24.49
2018-04-29T11:01:51.396Z,24.42
2018-04-29T11:02:51.309Z,24.51
2018-04-29T11:03:51.304Z,24.51
2018-04-29T11:04:51.250Z,24.52
2018-04-29T11:05:51.300Z,24.46
2018-04-29T11:06:51.240Z,24.48
2018-04-29T11:07:51.202Z,24.48
2018-04-29T11:08:51.218Z,24.52
2018-04-29T11:09:51.177Z,24.54
2018-04-29T11:10:51.143Z,24.55
2018-04-29T11:11:51.084Z,24.52
2018-04-29T11:12:51.064Z,24.52
2018-04-29T11:13:50.992Z,24.54
2018-04-29T11:14:50.983Z,24.48
2018-04-29T11:15:50.976Z,24.40
2018-04-29T11:16:51.046Z,24.45
2018-04-29T11:17:50.901Z,24.48
2018-04-29T11:18:50.919Z,24.51
2018-04-29T11:19:50.854Z,24.55
2018-04-29T11:20:50.820Z,24.48
2018-04-29T11:21:50.801Z,24.56
2018-04-29T11:22:50.939Z,24.45
2018-04-29T11:23:50.752Z,24.51
2018-04-29T11:24:50.755Z,24.49
2018-04-29T11:25:50.680Z,24.51
2018-04-29T11:26:50.656Z,24.56
2018-04-29T11:27:50.739Z,24.59
2018-04-29T11:28:50.596Z,24.63
2018-04-29T11:29:50.581Z,24.71
2018-04-29T11:30:50.572Z,24.71
2018-04-29T11:31:50.536Z,24.80
2018-04-29T11:32:50.607Z,24.87
2018-04-29T11:33:50.551Z,24.89
2018-04-29T11:34:50.436Z,25.00
2018-04-29T11:35:50.427Z,25.00
2018-04-29T11:36:50.400Z,25.08
2018-04-29T11:37:50.357Z,25.17
2018-04-29T11:38:50.423Z,25.24
2018-04-29T11:39:50.305Z,25.27
2018-04-29T11:40:50.268Z,25.29
2018-04-29T11:41:50.246Z,25.30
2018-04-29T11:42:50.235Z,25.32
2018-04-29T11:43:50.298Z,25.41
2018-04-29T11:44:50.191Z,25.34
2018-04-29T11:45:50.217Z,25.51
2018-04-29T11:46:50.132Z,25.62
2018-04-29T11:47:50.095Z,25.51
2018-04-29T11:48:50.239Z,25.74
2018-04-29T11:49:50.030Z,25.70
2018-04-29T11:50:50.000Z,25.88
2018-04-29T11:51:50.042Z,25.88
2018-04-29T11:52:49.954Z,25.86
2018-04-29T11:53:49.927Z,25.97
2018-04-29T11:54:50.015Z,26.01
2018-04-29T11:55:49.920Z,26.12
2018-04-29T11:56:49.842Z,26.16
2018-04-29T11:57:49.836Z,26.19
2018-04-29T11:58:49.832Z,26.32
2018-04-29T11:59:50.118Z,26.56
2018-04-29T12:00:49.738Z,26.68
2018-04-29T12:01:49.792Z,26.94
2018-04-29T12:02:49.706Z,27.41
2018-04-29T12:03:49.654Z,27.83
2018-04-29T12:04:49.749Z,28.21
2018-04-29T12:05:49.604Z,28.46
2018-04-29T12:06:49.590Z,28.58
2018-04-29T12:07:49.621Z,28.92
2018-04-29T12:08:49.551Z,29.36
2018-04-29T12:09:49.666Z,29.98
2018-04-29T12:10:49.474Z,29.95
2018-04-29T12:11:49.468Z,29.85
2018-04-29T12:12:49.440Z,29.67
2018-04-29T12:13:49.435Z,29.17
2018-04-29T12:14:49.386Z,28.79
2018-04-29T12:15:49.497Z,28.54
2018-04-29T12:16:49.351Z,28.35
2018-04-29T12:17:49.363Z,28.05
2018-04-29T12:18:49.334Z,28.03
2018-04-29T12:19:49.342Z,28.05
2018-04-29T12:20:49.342Z,27.99
2018-04-29T12:21:49.274Z,28.12
2018-04-29T12:22:49.191Z,28.17
2018-04-29T12:23:49.157Z,28.43
2018-04-29T12:24:49.141Z,28.86
2018-04-29T12:25:49.255Z,29.35
2018-04-29T12:26:49.115Z,29.77
2018-04-29T12:27:49.057Z,30.42
2018-04-29T12:28:49.032Z,30.82
2018-04-29T12:29:49.048Z,30.77
2018-04-29T12:30:48.962Z,31.18
2018-04-29T12:31:49.076Z,31.34
2018-04-29T12:32:48.928Z,31.41
2018-04-29T12:33:48.927Z,31.30
2018-04-29T12:34:48.969Z,30.69
2018-04-29T12:35:48.861Z,29.84
2018-04-29T12:36:48.927Z,29.66
2018-04-29T12:37:48.794Z,29.36
2018-04-29T12:38:48.772Z,29.05
2018-04-29T12:39:48.820Z,28.90
2018-04-29T12:40:48.721Z,28.82
2018-04-29T12:41:48.823Z,28.88
2018-04-29T12:42:48.711Z,29.14
2018-04-29T12:43:48.653Z,29.60
2018-04-29T12:44:48.644Z,29.50
2018-04-29T12:45:48.624Z,29.36
2018-04-29T12:46:48.799Z,28.97
2018-04-29T12:47:48.579Z,28.80
2018-04-29T12:48:48.549Z,28.91
2018-04-29T12:49:48.510Z,28.94
2018-04-29T12:50:48.475Z,28.92
2018-04-29T12:51:48.471Z,29.15
2018-04-29T12:52:48.578Z,29.21
2018-04-29T12:53:48.465Z,29.28
2018-04-29T12:54:48.389Z,29.35